Tuesday, July 25, 2017, 2:33 AM EDT

KMDT, Harrisburg International Airport

Location: Middletown, PA, United States Lat: 40.2
Local Time: 2:33 AM EDT ( 6:33 GMT) Lon: -76.767
Time Zone: US/Eastern Elev: 308 ft

Show me the last for .
Show Decoded

2017-07-25 01:56 METAR KMDT 250556Z 29007KT 10SM FEW065 21/16 A2996 RMK AO2 SLP142 T02110161
                 10250 20211 51023 =
2017-07-25 00:56 METAR KMDT 250456Z 33003KT 10SM FEW090 22/16 A2994 RMK AO2 SLP137 T02220161
                 403060211 =
2017-07-24 23:56 METAR KMDT 250356Z 33007KT 10SM FEW085 24/16 A2992 RMK AO2 SLP128 T02390161 =
2017-07-24 22:56 METAR KMDT 250256Z 32009KT 10SM BKN080 BKN100 24/17 A2989 RMK AO2 SLP118
                 T02440167 53020 =
2017-07-24 21:56 METAR KMDT 250156Z 31009KT 10SM SCT075 BKN090 24/21 A2987 RMK A02 SLP114
                 T02440211 =
2017-07-24 20:56 METAR KMDT 250056Z 30005KT 10SM FEW075 SCT100 BKN250 23/22 A2983 RMK AO2 SLP101
                 T02330217 $ =
2017-07-24 19:56 METAR KMDT 242356Z 31007KT 10SM FEW049 SCT065 24/21 A2983 RMK AO2 SLP099 60006
                 T02390211 10306 20239 51018 $ =
2017-07-24 18:56 METAR KMDT 242256Z 31005KT 10SM FEW055 SCT080 BKN100 25/21 A2981 RMK AO2 WSHFT
                 2202 RAE30 TSE30 SLP092 TS MOVD NE LTG DSNT SE-SW TS DSNT SE-SW P0006 T02500211
                 $ =
2017-07-24 18:33 METAR KMDT 242233Z 22010KT 10SM FEW036 BKN080 24/22 A2980 RMK AO2 WSHFT 2202
                 RAE30 TSE30 TS MOVD NE LTG DSNT SW TS DSNT SW P0006 T02440222 $ =
2017-07-24 18:22 METAR KMDT 242222Z 25010G21KT 3SM -TSRA SCT041CB BKN080 OVC090 25/22 A2981 RMK
                 AO2 WSHFT 2202 OCNL LTGICCC SW-W AND N-NE TS SW-W AND N-NE MOV NE P0006
                 T02500217 $ =
2017-07-24 18:14 METAR KMDT 242214Z 23011KT 3SM R13/5500VP6000FT -TSRA BR SCT046CB BKN075 OVC090
                 24/22 A2981 RMK AO2 OCNL LTGICCC SW-W AND N-NE TS SW-W AND N-NE MOV NE P0006
                 T02440222 $ =
2017-07-24 18:11 METAR KMDT 242211Z 25013G22KT 1 3/4SM R13/5500VP6000FT -TSRA BR SCT046CB BKN075
                 OVC090 24/22 A2981 RMK AO2 OCNL LTGICCC SW-W AND N-NE TS SW-W AND N-NE MOV NE
                 P0002 T02440222 $ =
2017-07-24 17:56 METAR KMDT 242156Z 30016G23KT 8SM -TSRA SCT045CB BKN080 BKN110 27/21 A2980 RMK
                 AO2 RAB42 TSB42 SLP089 OCNL LTGICCC SW-W AND N TS SW-W AND N MOV E P0000
                 T02670211 $ =
2017-07-24 17:47 METAR KMDT 242147Z 29008KT 9SM -TSRA SCT050CB BKN070 BKN110 28/21 A2979 RMK AO2
                 RAB42 TSB42 OCNL LTGICCC SW-W AND N TS SW-W AND N MOV SE P0000 T02830211 =
2017-07-24 17:35 METAR KMDT 242135Z 25006KT 10SM VCTS SCT050CB BKN070 BKN110 29/20 A2978 RMK AO2
                 LTG VC W VCTS W-NW T02890200 =
2017-07-24 16:56 METAR KMDT 242056Z VRB06KT 10SM FEW055 SCT120 29/19 A2977 RMK AO2 LTG DSNT W
                 SLP080 T02940189 58010 =
2017-07-24 15:56 METAR KMDT 241956Z 24006KT 10SM SCT055 SCT120 29/21 A2979 RMK AO2 SLP084
                 T02940206 =
2017-07-24 14:56 METAR KMDT 241856Z 00000KT 10SM FEW039 SCT055 29/20 A2979 RMK AO2 SLP086
                 T02940200 =
2017-07-24 13:56 METAR KMDT 241756Z 29003KT 10SM SCT040 SCT060 28/19 A2980 RMK AO2 SLP090
                 T02830194 10289 20222 58001 =
2017-07-24 12:56 METAR KMDT 241656Z 27003KT 10SM SCT040 BKN060 28/20 A2981 RMK AO2 SLP092
                 T02780200 =
2017-07-24 12:32 METAR KMDT 241632Z 30004KT 10SM FEW028 SCT040 BKN050 27/21 A2981 RMK AO2
                 T02720206 =
2017-07-24 11:56 METAR KMDT 241556Z 29005KT 10SM BKN028 BKN037 27/21 A2981 RMK AO2 SLP092
                 T02670206 =
2017-07-24 10:56 METAR KMDT 241456Z 30007KT 10SM SCT050 SCT150 26/21 A2981 RMK AO2 SLP091
                 T02560206 51008 =
2017-07-24 09:56 METAR KMDT 241356Z 31007KT 10SM FEW065 SCT150 24/21 A2980 RMK AO2 SLP088
                 T02440206 =
2017-07-24 08:56 METAR KMDT 241256Z 31011KT 10SM FEW065 SCT100 23/21 A2980 RMK AO2 SLP090
                 T02330206 =
2017-07-24 07:56 METAR KMDT 241156Z 31007KT 10SM FEW065 22/21 A2978 RMK AO2 SLP084 60006 70529
                 T02220206 10228 20211 53025 =
2017-07-24 06:56 METAR KMDT 241056Z 32005KT 10SM OVC050 21/20 A2977 RMK AO2 RAE0958B19E54 SLP078
                 P0001 T02110200 $ =
2017-07-24 06:34 METAR KMDT 241034Z 33009G19KT 10SM -RA FEW011 SCT028 BKN048 22/21 A2974 RMK AO2
                 RAE0958B19 P0001 T02170206 $ =
2017-07-24 05:56 METAR KMDT 240956Z 26007KT 10SM -RA FEW008 SCT011 OVC018 23/22 A2972 RMK AO2
                 RAB15 SLP062 P0001 T02280217 $ =
2017-07-24 05:17 METAR KMDT 240917Z 33004KT 8SM -RA BKN008 BKN023 OVC075 22/22 A2971 RMK AO2
                 RAB15 P0000 T02220217 $ =
2017-07-24 04:56 METAR KMDT 240856Z 00000KT 9SM SCT008 BKN050 OVC070 22/22 A2971 RMK AO2 SLP057
                 60004 T02220217 56016 $ =
2017-07-24 03:56 METAR KMDT 240756Z 11004KT 10SM SCT008 BKN150 22/22 A2972 RMK AO2 SLP062
                 T02220217 $ =
2017-07-24 02:56 METAR KMDT 240656Z 11005KT 10SM FEW006 SCT009 OVC140 23/22 A2973 RMK AO2 RAE47
                 SLP064 P0004 T02280217 $ =

Support USWX by starting your Amazon purchase here.